createdAt,value
2022-12-22T00:05:54.257Z,1.75
2022-12-22T00:18:06.307Z,1.30
2022-12-22T00:26:40.677Z,1.67
2022-12-22T00:37:57.103Z,1.30
2022-12-22T00:40:46.008Z,1.30
2022-12-22T00:43:31.823Z,1.40
2022-12-22T00:46:19.128Z,1.35
2022-12-22T00:49:04.768Z,1.15
2022-12-22T00:51:50.415Z,1.17
2022-12-22T00:54:36.252Z,1.20
2022-12-22T00:57:22.160Z,1.17
2022-12-22T01:00:08.567Z,1.40
2022-12-22T01:08:30.911Z,1.00
2022-12-22T01:11:16.613Z,1.00
2022-12-22T01:14:01.743Z,0.75
2022-12-22T01:16:47.151Z,0.73
2022-12-22T01:19:32.354Z,1.10
2022-12-22T01:22:17.899Z,0.80
2022-12-22T01:25:03.927Z,0.80
2022-12-22T01:27:48.970Z,0.60
2022-12-22T01:30:34.378Z,0.50
2022-12-22T01:33:19.696Z,0.57
2022-12-22T01:36:08.593Z,0.60
2022-12-22T01:38:54.082Z,0.50
2022-12-22T01:41:39.988Z,0.65
2022-12-22T01:44:37.378Z,0.70
2022-12-22T01:47:48.848Z,0.77
2022-12-22T01:50:55.836Z,0.63
2022-12-22T01:53:44.912Z,0.50
2022-12-22T01:56:24.535Z,0.60
2022-12-22T01:59:24.445Z,0.60
2022-12-22T02:02:21.406Z,0.65
2022-12-22T02:08:43.981Z,0.40
2022-12-22T02:11:49.771Z,0.70
2022-12-22T02:14:54.416Z,0.43
2022-12-22T02:17:47.540Z,1.30
2022-12-22T02:20:56.568Z,0.80
2022-12-22T02:24:35.060Z,0.52
2022-12-22T02:27:20.867Z,0.57
2022-12-22T02:30:14.729Z,0.70
2022-12-22T02:33:09.168Z,0.80
2022-12-22T02:39:25.071Z,0.55
2022-12-22T02:42:38.496Z,1.10
2022-12-22T02:46:06.189Z,0.68
2022-12-22T02:49:07.164Z,0.73
2022-12-22T02:51:56.829Z,0.70
2022-12-22T02:54:42.550Z,0.90
2022-12-22T02:57:27.969Z,1.00
2022-12-22T03:00:12.974Z,0.75
2022-12-22T03:02:58.638Z,0.90
2022-12-22T03:05:43.701Z,0.90
2022-12-22T03:08:11.953Z,0.90
2022-12-22T03:11:06.461Z,0.77
2022-12-22T03:17:04.637Z,1.00
2022-12-22T03:25:31.610Z,1.00
2022-12-22T03:28:08.341Z,0.95
2022-12-22T03:30:35.905Z,1.05
2022-12-22T03:33:02.623Z,0.98
2022-12-22T03:35:29.223Z,1.10
2022-12-22T03:46:15.764Z,0.90
2022-12-22T03:48:42.710Z,0.85
2022-12-22T03:51:10.168Z,1.00
2022-12-22T03:53:37.076Z,1.17
2022-12-22T03:56:07.803Z,1.10
2022-12-22T03:58:34.647Z,1.05
2022-12-22T04:01:06.522Z,0.90
2022-12-22T04:03:33.249Z,0.90
2022-12-22T04:06:00.237Z,0.90
2022-12-22T04:08:26.935Z,1.10
2022-12-22T04:10:59.911Z,1.00
2022-12-22T04:16:17.991Z,1.33
2022-12-22T04:18:44.709Z,1.13
2022-12-22T04:21:11.437Z,1.20
2022-12-22T04:23:38.051Z,1.10
2022-12-22T04:26:04.837Z,1.25
2022-12-22T04:28:31.538Z,0.88
2022-12-22T04:30:58.194Z,0.98
2022-12-22T04:33:24.858Z,1.42
2022-12-22T04:35:51.473Z,0.90
2022-12-22T04:38:18.161Z,0.80
2022-12-22T04:48:44.836Z,0.85
2022-12-22T04:51:11.491Z,0.80
2022-12-22T04:53:38.386Z,0.70
2022-12-22T04:56:07.250Z,0.65
2022-12-22T05:06:51.241Z,0.55
2022-12-22T05:09:17.890Z,0.60
2022-12-22T05:11:44.633Z,0.60
2022-12-22T05:14:11.181Z,0.73
2022-12-22T05:16:44.839Z,0.80
2022-12-22T05:19:11.621Z,0.73
2022-12-22T05:21:38.219Z,0.70
2022-12-22T05:26:37.780Z,0.73
2022-12-22T05:29:04.521Z,0.95
2022-12-22T05:37:10.800Z,0.40
2022-12-22T05:39:37.397Z,0.30
2022-12-22T05:42:04.209Z,0.22
2022-12-22T05:44:31.010Z,0.20
2022-12-22T05:46:57.712Z,0.32
2022-12-22T05:51:56.675Z,0.45
2022-12-22T05:54:23.328Z,0.35
2022-12-22T05:56:49.974Z,0.30
2022-12-22T05:59:16.904Z,0.47
2022-12-22T06:01:43.567Z,0.30
2022-12-22T06:04:10.366Z,0.40
2022-12-22T06:06:37.035Z,0.43
2022-12-22T06:09:03.881Z,0.28
2022-12-22T06:11:30.579Z,0.52
2022-12-22T06:13:57.657Z,0.60
2022-12-22T06:16:24.451Z,0.55
2022-12-22T06:18:51.351Z,0.47
2022-12-22T06:21:18.006Z,0.88
2022-12-22T06:23:44.606Z,0.68
2022-12-22T06:26:11.424Z,0.82
2022-12-22T06:28:38.030Z,0.60
2022-12-22T06:31:04.816Z,0.55
2022-12-22T06:33:37.771Z,0.77
2022-12-22T06:36:05.995Z,0.50
2022-12-22T06:38:32.991Z,0.95
2022-12-22T06:40:59.905Z,1.67
2022-12-22T06:48:56.540Z,0.40
2022-12-22T06:51:23.385Z,0.50
2022-12-22T06:53:50.120Z,0.20
2022-12-22T06:56:16.699Z,0.20
2022-12-22T06:58:43.298Z,0.32
2022-12-22T07:01:10.135Z,0.43
2022-12-22T07:03:36.817Z,0.30
2022-12-22T07:06:03.570Z,0.35
2022-12-22T07:08:30.147Z,0.40
2022-12-22T07:13:52.115Z,0.40
2022-12-22T07:18:54.659Z,0.88
2022-12-22T07:21:21.397Z,0.60
2022-12-22T07:23:48.459Z,0.82
2022-12-22T07:26:23.739Z,0.47
2022-12-22T07:28:50.951Z,0.63
2022-12-22T07:31:18.670Z,0.50
2022-12-22T07:33:45.561Z,0.40
2022-12-22T07:36:15.378Z,0.40
2022-12-22T07:38:48.872Z,0.50
2022-12-22T07:41:37.241Z,0.40
2022-12-22T07:44:04.568Z,0.40
2022-12-22T07:49:37.915Z,0.43
2022-12-22T08:05:45.696Z,0.98
2022-12-22T08:08:12.451Z,1.00
2022-12-22T08:10:39.240Z,1.30
2022-12-22T08:21:19.362Z,1.33
2022-12-22T08:51:33.799Z,3.00
2022-12-22T09:07:18.516Z,4.70
2022-12-22T09:14:58.824Z,3.83
2022-12-22T09:17:26.096Z,4.55
2022-12-22T09:19:52.847Z,4.15
2022-12-22T09:22:26.771Z,6.25
2022-12-22T09:24:55.489Z,6.70
2022-12-22T09:30:19.370Z,7.50
2022-12-22T09:32:50.108Z,9.03
2022-12-22T09:35:16.827Z,9.65
2022-12-22T09:43:12.914Z,11.10
2022-12-22T09:45:39.722Z,9.95
2022-12-22T09:50:50.005Z,11.73
2022-12-22T09:53:25.652Z,10.60
2022-12-22T09:55:52.314Z,12.43
2022-12-22T10:04:15.464Z,13.70
2022-12-22T10:07:26.043Z,12.95
2022-12-22T10:09:52.755Z,11.60
2022-12-22T10:12:24.594Z,14.20
2022-12-22T10:14:52.858Z,12.30
2022-12-22T10:17:32.293Z,13.10
2022-12-22T10:20:20.882Z,13.23
2022-12-22T10:22:59.344Z,11.98
2022-12-22T10:28:07.079Z,12.65
2022-12-22T10:30:36.823Z,12.25
2022-12-22T10:35:57.593Z,11.60
2022-12-22T10:38:32.988Z,11.55
2022-12-22T10:41:18.724Z,10.40
2022-12-22T10:43:54.324Z,10.07
2022-12-22T10:46:34.077Z,11.07
2022-12-22T10:49:13.603Z,8.43
2022-12-22T10:51:41.389Z,10.05
2022-12-22T10:54:08.217Z,10.13
2022-12-22T10:56:35.387Z,10.75
2022-12-22T10:59:02.182Z,9.98
2022-12-22T11:01:34.143Z,10.63
2022-12-22T11:04:24.911Z,9.73
2022-12-22T11:06:53.142Z,9.43
2022-12-22T11:09:34.976Z,11.05
2022-12-22T11:12:25.222Z,10.00
2022-12-22T11:27:21.354Z,10.32
2022-12-22T11:33:19.437Z,12.13
2022-12-22T11:38:54.400Z,9.38
2022-12-22T11:41:49.844Z,9.45
2022-12-22T11:44:32.012Z,8.98
2022-12-22T11:46:59.055Z,9.02
2022-12-22T11:49:51.537Z,8.80
2022-12-22T11:52:34.697Z,8.18
2022-12-22T11:55:24.757Z,8.38
2022-12-22T11:58:31.962Z,9.05
2022-12-22T12:01:24.071Z,7.50
2022-12-22T12:04:07.794Z,9.20
2022-12-22T12:07:06.387Z,8.05
2022-12-22T12:09:48.408Z,6.85
2022-12-22T12:12:21.245Z,7.00
2022-12-22T12:33:07.640Z,6.13
2022-12-22T12:35:58.785Z,6.88
2022-12-22T12:44:36.988Z,6.72
2022-12-22T12:47:27.978Z,6.32
2022-12-22T12:50:33.533Z,6.78
2022-12-22T12:53:09.261Z,7.63
2022-12-22T12:55:59.494Z,7.93
2022-12-22T12:58:51.666Z,6.15
2022-12-22T13:01:27.584Z,6.90
2022-12-22T13:04:03.501Z,6.03
2022-12-22T13:06:51.207Z,6.53
2022-12-22T13:12:33.613Z,5.25
2022-12-22T13:15:01.613Z,5.33
2022-12-22T13:20:34.987Z,6.10
2022-12-22T13:23:09.911Z,5.80
2022-12-22T13:25:43.264Z,4.57
2022-12-22T13:28:17.776Z,5.18
2022-12-22T13:30:49.174Z,4.68
2022-12-22T13:33:21.426Z,5.65
2022-12-22T13:35:59.150Z,4.85
2022-12-22T13:38:52.094Z,5.18
2022-12-22T13:41:27.502Z,4.97
2022-12-22T13:43:57.353Z,4.60
2022-12-22T13:48:55.781Z,4.40
2022-12-22T13:51:29.023Z,5.00
2022-12-22T13:54:19.797Z,4.28
2022-12-22T14:02:25.091Z,4.45
2022-12-22T14:05:12.439Z,4.45
2022-12-22T14:07:39.152Z,3.90
2022-12-22T14:10:07.502Z,4.20
2022-12-22T14:12:42.563Z,4.10
2022-12-22T14:15:16.975Z,5.13
2022-12-22T14:28:43.234Z,5.15
2022-12-22T14:33:39.377Z,5.28
2022-12-22T14:36:15.499Z,6.40
2022-12-22T14:38:45.247Z,5.60
2022-12-22T14:44:02.900Z,5.68
2022-12-22T14:46:35.071Z,7.55
2022-12-22T14:49:25.413Z,7.13
2022-12-22T14:52:08.193Z,6.95
2022-12-22T14:54:34.980Z,6.60
2022-12-22T14:57:15.754Z,6.53
2022-12-22T14:59:58.586Z,6.60
2022-12-22T15:05:09.237Z,6.90
2022-12-22T15:08:06.545Z,7.32
2022-12-22T15:10:41.985Z,6.70
2022-12-22T15:13:24.260Z,7.25
2022-12-22T15:15:51.990Z,9.02
2022-12-22T15:18:24.542Z,8.98
2022-12-22T15:20:51.281Z,9.15
2022-12-22T15:23:21.003Z,10.02
2022-12-22T15:25:47.675Z,9.13
2022-12-22T15:28:14.412Z,9.73
2022-12-22T15:30:41.539Z,8.77
2022-12-22T15:33:16.798Z,7.80
2022-12-22T15:35:45.200Z,8.45
2022-12-22T15:38:25.038Z,6.88
2022-12-22T15:40:52.426Z,6.68
2022-12-22T15:46:07.247Z,5.22
2022-12-22T15:48:36.575Z,5.32
2022-12-22T15:51:04.977Z,5.20
2022-12-22T15:53:32.877Z,3.72
2022-12-22T15:55:59.759Z,3.75
2022-12-22T15:58:32.163Z,3.10
2022-12-22T16:00:58.839Z,2.03
2022-12-22T16:03:25.596Z,1.80
2022-12-22T16:05:53.229Z,1.35
2022-12-22T16:10:52.253Z,1.00
2022-12-22T16:13:19.833Z,1.65
2022-12-22T16:15:47.664Z,1.00
2022-12-22T16:18:14.353Z,1.00
2022-12-22T16:20:42.601Z,0.80
2022-12-22T16:31:19.192Z,0.60
2022-12-22T16:33:46.010Z,0.80
2022-12-22T19:05:02.567Z,4.82
2022-12-22T19:13:12.093Z,1.33
2022-12-22T19:18:26.508Z,2.03
2022-12-22T19:21:01.841Z,3.15
2022-12-22T19:23:35.676Z,3.83
2022-12-22T19:26:08.557Z,2.67
2022-12-22T19:39:42.253Z,3.38
2022-12-22T19:44:43.071Z,3.75
2022-12-22T19:47:19.323Z,2.97
2022-12-22T19:49:46.844Z,3.28
2022-12-22T20:00:18.918Z,3.55
2022-12-22T20:02:46.948Z,2.88
2022-12-22T20:05:23.325Z,3.63
2022-12-22T20:10:39.788Z,3.77
2022-12-22T20:46:19.976Z,7.07
2022-12-22T21:05:04.929Z,5.43
2022-12-22T21:07:31.588Z,4.70
2022-12-22T21:09:58.201Z,4.35
2022-12-22T21:20:29.300Z,5.57
2022-12-22T21:42:06.462Z,6.30
2022-12-22T21:44:34.746Z,6.03
2022-12-22T22:03:47.722Z,7.97
2022-12-22T22:08:55.477Z,10.80
2022-12-22T22:38:25.075Z,8.57
2022-12-22T22:40:51.818Z,10.52
2022-12-22T22:43:18.389Z,9.23
2022-12-22T22:45:46.502Z,9.60
2022-12-22T22:48:19.944Z,10.15
2022-12-22T22:50:46.666Z,9.63
2022-12-22T22:53:13.330Z,10.38
2022-12-22T22:55:39.957Z,10.68
2022-12-22T23:00:51.961Z,10.93
2022-12-22T23:43:45.540Z,11.23
2022-12-22T23:46:14.684Z,10.32
